sensor_id;sensor_type;location;lat;lon;timestamp;temperature;humidity
25963;DHT22;13760;52.588;13.406;2022-11-23T00:00:26;1.20;99.90
25963;DHT22;13760;52.588;13.406;2022-11-23T00:02:58;1.20;99.90
25963;DHT22;13760;52.588;13.406;2022-11-23T00:05:26;1.10;99.90
25963;DHT22;13760;52.588;13.406;2022-11-23T00:07:52;1.20;99.90
25963;DHT22;13760;52.588;13.406;2022-11-23T00:10:17;1.20;99.90
25963;DHT22;13760;52.588;13.406;2022-11-23T00:12:43;1.10;99.90
25963;DHT22;13760;52.588;13.406;2022-11-23T00:15:11;1.10;99.90
25963;DHT22;13760;52.588;13.406;2022-11-23T00:17:37;1.10;99.90
25963;DHT22;13760;52.588;13.406;2022-11-23T00:20:04;1.10;99.90
25963;DHT22;13760;52.588;13.406;2022-11-23T00:22:30;1.10;99.90
25963;DHT22;13760;52.588;13.406;2022-11-23T00:24:55;1.10;99.90
25963;DHT22;13760;52.588;13.406;2022-11-23T00:27:21;1.10;99.90
25963;DHT22;13760;52.588;13.406;2022-11-23T00:29:46;1.10;99.90
25963;DHT22;13760;52.588;13.406;2022-11-23T00:32:12;1.10;99.90
25963;DHT22;13760;52.588;13.406;2022-11-23T00:34:37;1.10;99.90
25963;DHT22;13760;52.588;13.406;2022-11-23T00:37:03;1.20;99.90
25963;DHT22;13760;52.588;13.406;2022-11-23T00:39:28;1.10;99.90
25963;DHT22;13760;52.588;13.406;2022-11-23T00:41:54;1.10;99.90
25963;DHT22;13760;52.588;13.406;2022-11-23T00:44:19;1.10;99.90
25963;DHT22;13760;52.588;13.406;2022-11-23T00:46:45;1.10;99.90
25963;DHT22;13760;52.588;13.406;2022-11-23T00:49:10;1.10;99.90
25963;DHT22;13760;52.588;13.406;2022-11-23T00:51:36;1.10;99.90
25963;DHT22;13760;52.588;13.406;2022-11-23T00:54:03;1.10;99.90
25963;DHT22;13760;52.588;13.406;2022-11-23T00:56:30;1.00;99.90
25963;DHT22;13760;52.588;13.406;2022-11-23T00:58:57;1.00;99.90
25963;DHT22;13760;52.588;13.406;2022-11-23T01:01:32;1.10;99.90
25963;DHT22;13760;52.588;13.406;2022-11-23T01:04:06;1.00;99.90
25963;DHT22;13760;52.588;13.406;2022-11-23T01:06:38;1.00;99.90
25963;DHT22;13760;52.588;13.406;2022-11-23T01:09:07;1.00;99.90
25963;DHT22;13760;52.588;13.406;2022-11-23T01:11:33;1.00;99.90
25963;DHT22;13760;52.588;13.406;2022-11-23T01:13:59;1.00;99.90
25963;DHT22;13760;52.588;13.406;2022-11-23T01:16:30;1.10;99.90
25963;DHT22;13760;52.588;13.406;2022-11-23T01:18:58;1.10;99.90
25963;DHT22;13760;52.588;13.406;2022-11-23T01:21:25;1.10;99.90
25963;DHT22;13760;52.588;13.406;2022-11-23T01:23:51;1.10;99.90
25963;DHT22;13760;52.588;13.406;2022-11-23T01:26:17;1.20;99.90
25963;DHT22;13760;52.588;13.406;2022-11-23T01:28:43;1.20;99.90
25963;DHT22;13760;52.588;13.406;2022-11-23T01:31:11;1.20;99.90
25963;DHT22;13760;52.588;13.406;2022-11-23T01:33:36;1.20;99.90
25963;DHT22;13760;52.588;13.406;2022-11-23T01:36:13;1.20;99.90
25963;DHT22;13760;52.588;13.406;2022-11-23T01:38:40;1.20;99.90
25963;DHT22;13760;52.588;13.406;2022-11-23T01:41:07;1.30;99.90
25963;DHT22;13760;52.588;13.406;2022-11-23T01:43:33;1.30;99.90
25963;DHT22;13760;52.588;13.406;2022-11-23T01:45:59;1.30;99.90
25963;DHT22;13760;52.588;13.406;2022-11-23T01:48:39;1.30;99.90
25963;DHT22;13760;52.588;13.406;2022-11-23T01:51:10;1.30;99.90
25963;DHT22;13760;52.588;13.406;2022-11-23T01:53:36;1.30;99.90
25963;DHT22;13760;52.588;13.406;2022-11-23T01:56:04;1.40;99.90
25963;DHT22;13760;52.588;13.406;2022-11-23T01:58:34;1.40;99.90
25963;DHT22;13760;52.588;13.406;2022-11-23T02:01:01;1.40;99.90
25963;DHT22;13760;52.588;13.406;2022-11-23T02:03:28;1.40;99.90
25963;DHT22;13760;52.588;13.406;2022-11-23T02:05:58;1.40;99.90
25963;DHT22;13760;52.588;13.406;2022-11-23T02:08:27;1.40;99.90
25963;DHT22;13760;52.588;13.406;2022-11-23T02:10:54;1.40;99.90
25963;DHT22;13760;52.588;13.406;2022-11-23T02:13:21;1.40;99.90
25963;DHT22;13760;52.588;13.406;2022-11-23T02:15:48;1.40;99.90
25963;DHT22;13760;52.588;13.406;2022-11-23T02:18:21;1.40;99.90
25963;DHT22;13760;52.588;13.406;2022-11-23T02:20:48;1.50;99.90
25963;DHT22;13760;52.588;13.406;2022-11-23T02:23:33;1.50;99.90
25963;DHT22;13760;52.588;13.406;2022-11-23T02:26:04;1.50;99.90
25963;DHT22;13760;52.588;13.406;2022-11-23T02:28:39;1.50;99.90
25963;DHT22;13760;52.588;13.406;2022-11-23T02:31:07;1.50;99.90
25963;DHT22;13760;52.588;13.406;2022-11-23T02:33:33;1.50;99.90
25963;DHT22;13760;52.588;13.406;2022-11-23T02:36:01;1.50;99.90
25963;DHT22;13760;52.588;13.406;2022-11-23T02:38:32;1.50;99.90
25963;DHT22;13760;52.588;13.406;2022-11-23T02:40:58;1.50;99.90
25963;DHT22;13760;52.588;13.406;2022-11-23T02:43:24;1.50;99.90
25963;DHT22;13760;52.588;13.406;2022-11-23T02:45:53;1.50;99.90
25963;DHT22;13760;52.588;13.406;2022-11-23T02:48:19;1.50;99.90
25963;DHT22;13760;52.588;13.406;2022-11-23T02:50:45;1.50;99.90
25963;DHT22;13760;52.588;13.406;2022-11-23T02:53:11;1.60;99.90
25963;DHT22;13760;52.588;13.406;2022-11-23T02:55:36;1.50;99.90
25963;DHT22;13760;52.588;13.406;2022-11-23T02:58:04;1.50;99.90
25963;DHT22;13760;52.588;13.406;2022-11-23T03:00:30;1.50;99.90
25963;DHT22;13760;52.588;13.406;2022-11-23T03:02:58;1.50;99.90
25963;DHT22;13760;52.588;13.406;2022-11-23T03:05:24;1.50;99.90
25963;DHT22;13760;52.588;13.406;2022-11-23T03:07:50;1.50;99.90
25963;DHT22;13760;52.588;13.406;2022-11-23T03:10:15;1.50;99.90
25963;DHT22;13760;52.588;13.406;2022-11-23T03:12:41;1.50;99.90
25963;DHT22;13760;52.588;13.406;2022-11-23T03:15:07;1.50;99.90
25963;DHT22;13760;52.588;13.406;2022-11-23T03:17:33;1.50;99.90
25963;DHT22;13760;52.588;13.406;2022-11-23T03:19:59;1.50;99.90
25963;DHT22;13760;52.588;13.406;2022-11-23T03:22:25;1.40;99.90
25963;DHT22;13760;52.588;13.406;2022-11-23T03:24:50;1.40;99.90
25963;DHT22;13760;52.588;13.406;2022-11-23T03:27:16;1.40;99.90
25963;DHT22;13760;52.588;13.406;2022-11-23T03:29:42;1.40;99.90
25963;DHT22;13760;52.588;13.406;2022-11-23T03:32:07;1.40;99.90
25963;DHT22;13760;52.588;13.406;2022-11-23T03:34:33;1.30;99.90
25963;DHT22;13760;52.588;13.406;2022-11-23T03:36:58;1.30;99.90
25963;DHT22;13760;52.588;13.406;2022-11-23T03:39:24;1.30;99.90
25963;DHT22;13760;52.588;13.406;2022-11-23T03:41:49;1.30;99.90
25963;DHT22;13760;52.588;13.406;2022-11-23T03:44:15;1.30;99.90
25963;DHT22;13760;52.588;13.406;2022-11-23T03:46:40;1.30;99.90
25963;DHT22;13760;52.588;13.406;2022-11-23T03:49:06;1.20;99.90
25963;DHT22;13760;52.588;13.406;2022-11-23T03:51:31;1.20;99.90
25963;DHT22;13760;52.588;13.406;2022-11-23T03:53:57;1.20;99.90
25963;DHT22;13760;52.588;13.406;2022-11-23T03:56:22;1.20;99.90
25963;DHT22;13760;52.588;13.406;2022-11-23T03:58:48;1.20;99.90
25963;DHT22;13760;52.588;13.406;2022-11-23T04:01:14;1.20;99.90
25963;DHT22;13760;52.588;13.406;2022-11-23T04:03:39;1.20;99.90
25963;DHT22;13760;52.588;13.406;2022-11-23T04:06:05;1.20;99.90
25963;DHT22;13760;52.588;13.406;2022-11-23T04:08:30;1.20;99.90
25963;DHT22;13760;52.588;13.406;2022-11-23T04:10:57;1.20;99.90
25963;DHT22;13760;52.588;13.406;2022-11-23T04:13:23;1.20;99.90
25963;DHT22;13760;52.588;13.406;2022-11-23T04:15:48;1.20;99.90
25963;DHT22;13760;52.588;13.406;2022-11-23T04:18:14;1.10;99.90
25963;DHT22;13760;52.588;13.406;2022-11-23T04:20:39;1.10;99.90
25963;DHT22;13760;52.588;13.406;2022-11-23T04:23:05;1.10;99.90
25963;DHT22;13760;52.588;13.406;2022-11-23T04:25:30;1.10;99.90
25963;DHT22;13760;52.588;13.406;2022-11-23T04:27:56;1.10;99.90
25963;DHT22;13760;52.588;13.406;2022-11-23T04:30:21;1.10;99.90
25963;DHT22;13760;52.588;13.406;2022-11-23T04:32:47;1.10;99.90
25963;DHT22;13760;52.588;13.406;2022-11-23T04:35:13;1.10;99.90
25963;DHT22;13760;52.588;13.406;2022-11-23T04:37:38;1.10;99.90
25963;DHT22;13760;52.588;13.406;2022-11-23T04:40:07;1.10;99.90
25963;DHT22;13760;52.588;13.406;2022-11-23T04:42:39;1.10;99.90
25963;DHT22;13760;52.588;13.406;2022-11-23T04:45:06;1.10;99.90
25963;DHT22;13760;52.588;13.406;2022-11-23T04:47:32;1.10;99.90
25963;DHT22;13760;52.588;13.406;2022-11-23T04:49:57;1.10;99.90
25963;DHT22;13760;52.588;13.406;2022-11-23T04:52:22;1.10;99.90
25963;DHT22;13760;52.588;13.406;2022-11-23T04:54:48;1.00;99.90
25963;DHT22;13760;52.588;13.406;2022-11-23T04:57:14;1.00;99.90
25963;DHT22;13760;52.588;13.406;2022-11-23T04:59:39;1.00;99.90
25963;DHT22;13760;52.588;13.406;2022-11-23T05:02:05;1.00;99.90
25963;DHT22;13760;52.588;13.406;2022-11-23T05:04:32;1.00;99.90
25963;DHT22;13760;52.588;13.406;2022-11-23T05:06:58;1.00;99.90
25963;DHT22;13760;52.588;13.406;2022-11-23T05:09:24;1.00;99.90
25963;DHT22;13760;52.588;13.406;2022-11-23T05:11:49;1.00;99.90
25963;DHT22;13760;52.588;13.406;2022-11-23T05:14:15;1.00;99.90
25963;DHT22;13760;52.588;13.406;2022-11-23T05:16:45;1.00;99.90
25963;DHT22;13760;52.588;13.406;2022-11-23T05:19:18;1.00;99.90
25963;DHT22;13760;52.588;13.406;2022-11-23T05:21:45;1.00;99.90
25963;DHT22;13760;52.588;13.406;2022-11-23T05:24:10;1.00;99.90
25963;DHT22;13760;52.588;13.406;2022-11-23T05:26:36;1.00;99.90
25963;DHT22;13760;52.588;13.406;2022-11-23T05:29:02;1.00;99.90
25963;DHT22;13760;52.588;13.406;2022-11-23T05:31:28;1.00;99.90
25963;DHT22;13760;52.588;13.406;2022-11-23T05:33:53;1.10;99.90
25963;DHT22;13760;52.588;13.406;2022-11-23T05:36:19;1.10;99.90
25963;DHT22;13760;52.588;13.406;2022-11-23T05:38:44;1.10;99.90
25963;DHT22;13760;52.588;13.406;2022-11-23T05:41:10;1.10;99.90
25963;DHT22;13760;52.588;13.406;2022-11-23T05:43:35;1.10;99.90
25963;DHT22;13760;52.588;13.406;2022-11-23T05:46:02;1.10;99.90
25963;DHT22;13760;52.588;13.406;2022-11-23T05:48:27;1.20;99.90
25963;DHT22;13760;52.588;13.406;2022-11-23T05:50:53;1.20;99.90
25963;DHT22;13760;52.588;13.406;2022-11-23T05:53:19;1.20;99.90
25963;DHT22;13760;52.588;13.406;2022-11-23T05:55:44;1.20;99.90
25963;DHT22;13760;52.588;13.406;2022-11-23T05:58:10;1.20;99.90
25963;DHT22;13760;52.588;13.406;2022-11-23T06:00:36;1.20;99.90
25963;DHT22;13760;52.588;13.406;2022-11-23T06:03:02;1.20;99.90
25963;DHT22;13760;52.588;13.406;2022-11-23T06:05:28;1.20;99.90
25963;DHT22;13760;52.588;13.406;2022-11-23T06:07:54;1.30;99.90
25963;DHT22;13760;52.588;13.406;2022-11-23T06:10:20;1.30;99.90
25963;DHT22;13760;52.588;13.406;2022-11-23T06:12:45;1.20;99.90
25963;DHT22;13760;52.588;13.406;2022-11-23T06:15:11;1.30;99.90
25963;DHT22;13760;52.588;13.406;2022-11-23T06:17:37;1.30;99.90
25963;DHT22;13760;52.588;13.406;2022-11-23T06:20:06;1.20;99.90
25963;DHT22;13760;52.588;13.406;2022-11-23T06:22:33;1.20;99.90
25963;DHT22;13760;52.588;13.406;2022-11-23T06:25:02;1.20;99.90
25963;DHT22;13760;52.588;13.406;2022-11-23T06:27:28;1.20;99.90
25963;DHT22;13760;52.588;13.406;2022-11-23T06:29:53;1.20;99.90
25963;DHT22;13760;52.588;13.406;2022-11-23T06:32:19;1.10;99.90
25963;DHT22;13760;52.588;13.406;2022-11-23T06:34:45;1.10;99.90
25963;DHT22;13760;52.588;13.406;2022-11-23T06:37:11;1.10;99.90
25963;DHT22;13760;52.588;13.406;2022-11-23T06:39:37;1.00;99.90
25963;DHT22;13760;52.588;13.406;2022-11-23T06:42:04;1.00;99.90
25963;DHT22;13760;52.588;13.406;2022-11-23T06:44:29;1.00;99.90
25963;DHT22;13760;52.588;13.406;2022-11-23T06:46:55;1.00;99.90
25963;DHT22;13760;52.588;13.406;2022-11-23T06:49:20;1.00;99.90
25963;DHT22;13760;52.588;13.406;2022-11-23T06:51:46;1.00;99.90
25963;DHT22;13760;52.588;13.406;2022-11-23T06:54:13;0.90;99.90
25963;DHT22;13760;52.588;13.406;2022-11-23T06:56:38;0.90;99.90
25963;DHT22;13760;52.588;13.406;2022-11-23T06:59:04;0.90;99.90
25963;DHT22;13760;52.588;13.406;2022-11-23T07:01:30;0.90;99.90
25963;DHT22;13760;52.588;13.406;2022-11-23T07:03:56;0.80;99.90
25963;DHT22;13760;52.588;13.406;2022-11-23T07:06:22;0.80;99.90
25963;DHT22;13760;52.588;13.406;2022-11-23T07:08:47;0.80;99.90
25963;DHT22;13760;52.588;13.406;2022-11-23T07:11:13;0.90;99.90
25963;DHT22;13760;52.588;13.406;2022-11-23T07:13:38;0.90;99.90
25963;DHT22;13760;52.588;13.406;2022-11-23T07:16:04;0.90;99.90
25963;DHT22;13760;52.588;13.406;2022-11-23T07:18:31;0.90;99.90
25963;DHT22;13760;52.588;13.406;2022-11-23T07:20:57;0.80;99.90
25963;DHT22;13760;52.588;13.406;2022-11-23T07:23:23;0.80;99.90
25963;DHT22;13760;52.588;13.406;2022-11-23T07:25:49;0.80;99.90
25963;DHT22;13760;52.588;13.406;2022-11-23T07:28:15;0.80;99.90
25963;DHT22;13760;52.588;13.406;2022-11-23T07:30:41;0.80;99.90
25963;DHT22;13760;52.588;13.406;2022-11-23T07:33:08;0.80;99.90
25963;DHT22;13760;52.588;13.406;2022-11-23T07:35:38;0.80;99.90
25963;DHT22;13760;52.588;13.406;2022-11-23T07:38:04;0.80;99.90
25963;DHT22;13760;52.588;13.406;2022-11-23T07:40:33;0.80;99.90
25963;DHT22;13760;52.588;13.406;2022-11-23T07:43:00;0.80;99.90
25963;DHT22;13760;52.588;13.406;2022-11-23T07:45:27;0.90;99.90
25963;DHT22;13760;52.588;13.406;2022-11-23T07:48:00;0.90;99.90
25963;DHT22;13760;52.588;13.406;2022-11-23T07:50:27;0.90;99.90
25963;DHT22;13760;52.588;13.406;2022-11-23T07:52:52;1.00;99.90
25963;DHT22;13760;52.588;13.406;2022-11-23T07:55:18;1.00;99.90
25963;DHT22;13760;52.588;13.406;2022-11-23T07:57:44;1.10;99.90
25963;DHT22;13760;52.588;13.406;2022-11-23T08:00:10;1.20;99.90
25963;DHT22;13760;52.588;13.406;2022-11-23T08:02:37;1.20;99.90
25963;DHT22;13760;52.588;13.406;2022-11-23T08:05:02;1.30;99.90
25963;DHT22;13760;52.588;13.406;2022-11-23T08:07:28;1.40;99.90
25963;DHT22;13760;52.588;13.406;2022-11-23T08:09:54;1.40;99.90
25963;DHT22;13760;52.588;13.406;2022-11-23T08:12:19;1.50;99.90
25963;DHT22;13760;52.588;13.406;2022-11-23T08:14:45;1.50;99.90
25963;DHT22;13760;52.588;13.406;2022-11-23T08:17:10;1.60;99.90
25963;DHT22;13760;52.588;13.406;2022-11-23T08:19:35;1.60;99.90
25963;DHT22;13760;52.588;13.406;2022-11-23T08:22:01;1.70;99.90
25963;DHT22;13760;52.588;13.406;2022-11-23T08:24:26;1.70;99.90
25963;DHT22;13760;52.588;13.406;2022-11-23T08:26:52;1.80;99.90
25963;DHT22;13760;52.588;13.406;2022-11-23T08:29:17;1.80;99.90
25963;DHT22;13760;52.588;13.406;2022-11-23T08:31:43;1.90;99.90
25963;DHT22;13760;52.588;13.406;2022-11-23T08:34:08;2.00;99.90
25963;DHT22;13760;52.588;13.406;2022-11-23T08:36:34;2.00;99.90
25963;DHT22;13760;52.588;13.406;2022-11-23T08:38:59;2.00;99.90
25963;DHT22;13760;52.588;13.406;2022-11-23T08:41:25;2.10;99.90
25963;DHT22;13760;52.588;13.406;2022-11-23T08:43:51;2.10;99.90
25963;DHT22;13760;52.588;13.406;2022-11-23T08:46:17;2.20;99.90
25963;DHT22;13760;52.588;13.406;2022-11-23T08:48:42;2.20;99.90
25963;DHT22;13760;52.588;13.406;2022-11-23T08:51:09;2.20;99.90
25963;DHT22;13760;52.588;13.406;2022-11-23T08:53:34;2.20;99.90
25963;DHT22;13760;52.588;13.406;2022-11-23T08:56:01;2.20;99.90
25963;DHT22;13760;52.588;13.406;2022-11-23T08:58:27;2.30;99.90
25963;DHT22;13760;52.588;13.406;2022-11-23T09:00:53;2.30;99.90
25963;DHT22;13760;52.588;13.406;2022-11-23T09:03:20;2.40;99.90
25963;DHT22;13760;52.588;13.406;2022-11-23T09:05:48;2.40;99.90
25963;DHT22;13760;52.588;13.406;2022-11-23T09:08:15;2.50;99.90
25963;DHT22;13760;52.588;13.406;2022-11-23T09:10:41;2.50;99.90
25963;DHT22;13760;52.588;13.406;2022-11-23T09:13:06;2.60;99.90
25963;DHT22;13760;52.588;13.406;2022-11-23T09:15:32;2.60;99.90
25963;DHT22;13760;52.588;13.406;2022-11-23T09:17:57;2.70;99.90
25963;DHT22;13760;52.588;13.406;2022-11-23T09:20:23;2.80;99.90
25963;DHT22;13760;52.588;13.406;2022-11-23T09:22:50;2.80;99.90
25963;DHT22;13760;52.588;13.406;2022-11-23T09:25:16;2.90;99.90
25963;DHT22;13760;52.588;13.406;2022-11-23T09:27:42;3.00;99.90
25963;DHT22;13760;52.588;13.406;2022-11-23T09:30:08;3.00;99.90
25963;DHT22;13760;52.588;13.406;2022-11-23T09:32:33;3.00;99.90
25963;DHT22;13760;52.588;13.406;2022-11-23T09:34:59;3.00;99.90
25963;DHT22;13760;52.588;13.406;2022-11-23T09:37:25;3.00;99.90
25963;DHT22;13760;52.588;13.406;2022-11-23T09:39:50;3.00;99.90
25963;DHT22;13760;52.588;13.406;2022-11-23T09:42:38;3.00;99.90
25963;DHT22;13760;52.588;13.406;2022-11-23T09:45:29;2.90;99.90
25963;DHT22;13760;52.588;13.406;2022-11-23T09:51:04;2.90;99.90
25963;DHT22;13760;52.588;13.406;2022-11-23T09:56:24;2.90;99.90
25963;DHT22;13760;52.588;13.406;2022-11-23T09:58:54;2.90;99.90
25963;DHT22;13760;52.588;13.406;2022-11-23T10:01:21;2.80;99.90
25963;DHT22;13760;52.588;13.406;2022-11-23T10:03:47;2.80;99.90
25963;DHT22;13760;52.588;13.406;2022-11-23T10:06:20;2.80;99.90
25963;DHT22;13760;52.588;13.406;2022-11-23T10:09:31;2.90;99.90
25963;DHT22;13760;52.588;13.406;2022-11-23T10:15:19;3.00;99.90
25963;DHT22;13760;52.588;13.406;2022-11-23T10:21:34;3.10;99.90
25963;DHT22;13760;52.588;13.406;2022-11-23T10:24:15;3.20;99.90
25963;DHT22;13760;52.588;13.406;2022-11-23T10:26:47;3.20;99.90
25963;DHT22;13760;52.588;13.406;2022-11-23T10:29:31;3.20;99.90
25963;DHT22;13760;52.588;13.406;2022-11-23T10:32:32;3.20;99.90
25963;DHT22;13760;52.588;13.406;2022-11-23T10:35:17;3.30;99.90
25963;DHT22;13760;52.588;13.406;2022-11-23T10:37:47;3.30;99.90
25963;DHT22;13760;52.588;13.406;2022-11-23T10:40:22;3.40;99.90
25963;DHT22;13760;52.588;13.406;2022-11-23T10:43:00;3.50;99.90
25963;DHT22;13760;52.588;13.406;2022-11-23T10:45:28;3.50;99.90
25963;DHT22;13760;52.588;13.406;2022-11-23T10:47:57;3.60;99.90
25963;DHT22;13760;52.588;13.406;2022-11-23T10:50:28;3.60;99.90
25963;DHT22;13760;52.588;13.406;2022-11-23T10:55:51;3.70;99.90
25963;DHT22;13760;52.588;13.406;2022-11-23T10:58:30;3.80;99.90
25963;DHT22;13760;52.588;13.406;2022-11-23T11:01:13;3.90;99.90
25963;DHT22;13760;52.588;13.406;2022-11-23T11:03:39;3.90;99.90
25963;DHT22;13760;52.588;13.406;2022-11-23T11:06:05;4.00;99.90
25963;DHT22;13760;52.588;13.406;2022-11-23T11:08:33;4.10;99.90
25963;DHT22;13760;52.588;13.406;2022-11-23T11:11:24;4.20;99.90
25963;DHT22;13760;52.588;13.406;2022-11-23T11:13:50;4.30;99.90
25963;DHT22;13760;52.588;13.406;2022-11-23T11:16:31;4.30;99.90
25963;DHT22;13760;52.588;13.406;2022-11-23T11:18:57;4.40;99.90
25963;DHT22;13760;52.588;13.406;2022-11-23T11:21:33;4.50;99.90
25963;DHT22;13760;52.588;13.406;2022-11-23T11:24:01;4.60;99.90
25963;DHT22;13760;52.588;13.406;2022-11-23T11:26:29;4.70;99.90
25963;DHT22;13760;52.588;13.406;2022-11-23T11:29:03;4.80;99.90
25963;DHT22;13760;52.588;13.406;2022-11-23T11:31:46;4.80;99.90
25963;DHT22;13760;52.588;13.406;2022-11-23T11:34:26;4.90;99.90
25963;DHT22;13760;52.588;13.406;2022-11-23T11:40:01;5.10;99.90
25963;DHT22;13760;52.588;13.406;2022-11-23T11:42:53;5.10;99.90
25963;DHT22;13760;52.588;13.406;2022-11-23T11:45:27;5.20;99.90
25963;DHT22;13760;52.588;13.406;2022-11-23T11:48:18;5.20;99.90
25963;DHT22;13760;52.588;13.406;2022-11-23T11:53:48;5.30;99.90
25963;DHT22;13760;52.588;13.406;2022-11-23T11:56:37;5.30;99.90
25963;DHT22;13760;52.588;13.406;2022-11-23T11:59:25;5.30;99.90
25963;DHT22;13760;52.588;13.406;2022-11-23T12:02:17;5.40;99.90
25963;DHT22;13760;52.588;13.406;2022-11-23T12:04:58;5.40;99.90
25963;DHT22;13760;52.588;13.406;2022-11-23T12:07:35;5.40;99.90
25963;DHT22;13760;52.588;13.406;2022-11-23T12:10:11;5.40;99.90
25963;DHT22;13760;52.588;13.406;2022-11-23T12:12:39;5.40;99.90
25963;DHT22;13760;52.588;13.406;2022-11-23T12:15:05;5.50;99.90
25963;DHT22;13760;52.588;13.406;2022-11-23T12:26:26;5.70;99.90
25963;DHT22;13760;52.588;13.406;2022-11-23T12:29:06;5.70;99.90
25963;DHT22;13760;52.588;13.406;2022-11-23T12:31:45;5.80;99.90
25963;DHT22;13760;52.588;13.406;2022-11-23T12:34:36;5.80;99.90
25963;DHT22;13760;52.588;13.406;2022-11-23T12:40:49;5.80;99.90
25963;DHT22;13760;52.588;13.406;2022-11-23T12:42:49;5.80;99.90
25963;DHT22;13760;52.588;13.406;2022-11-23T12:48:42;5.80;99.90
25963;DHT22;13760;52.588;13.406;2022-11-23T12:56:47;6.00;99.90
25963;DHT22;13760;52.588;13.406;2022-11-23T12:59:23;6.00;99.90
25963;DHT22;13760;52.588;13.406;2022-11-23T13:01:55;5.90;99.90
25963;DHT22;13760;52.588;13.406;2022-11-23T13:04:43;5.90;99.90
25963;DHT22;13760;52.588;13.406;2022-11-23T13:23:25;5.90;99.90
25963;DHT22;13760;52.588;13.406;2022-11-23T13:26:17;5.90;99.90
25963;DHT22;13760;52.588;13.406;2022-11-23T13:28:48;5.90;99.90
25963;DHT22;13760;52.588;13.406;2022-11-23T13:33:40;5.90;99.90
25963;DHT22;13760;52.588;13.406;2022-11-23T13:36:10;5.90;99.90
25963;DHT22;13760;52.588;13.406;2022-11-23T13:38:38;5.90;99.90
25963;DHT22;13760;52.588;13.406;2022-11-23T13:46:58;5.80;99.90
25963;DHT22;13760;52.588;13.406;2022-11-23T13:54:54;5.80;99.90
25963;DHT22;13760;52.588;13.406;2022-11-23T13:57:20;5.80;99.90
25963;DHT22;13760;52.588;13.406;2022-11-23T13:59:46;5.80;99.90
25963;DHT22;13760;52.588;13.406;2022-11-23T14:04:44;5.80;99.90
25963;DHT22;13760;52.588;13.406;2022-11-23T14:07:29;5.80;99.90
25963;DHT22;13760;52.588;13.406;2022-11-23T14:10:02;5.80;99.90
25963;DHT22;13760;52.588;13.406;2022-11-23T14:12:44;5.80;99.90
25963;DHT22;13760;52.588;13.406;2022-11-23T14:15:34;5.70;99.90
25963;DHT22;13760;52.588;13.406;2022-11-23T14:21:06;5.70;99.90
25963;DHT22;13760;52.588;13.406;2022-11-23T14:26:29;5.60;99.90
25963;DHT22;13760;52.588;13.406;2022-11-23T14:29:31;5.60;99.90
25963;DHT22;13760;52.588;13.406;2022-11-23T14:32:12;5.60;99.90
25963;DHT22;13760;52.588;13.406;2022-11-23T14:42:59;5.40;99.90
25963;DHT22;13760;52.588;13.406;2022-11-23T14:45:34;5.30;99.90
25963;DHT22;13760;52.588;13.406;2022-11-23T14:48:32;5.30;99.90
25963;DHT22;13760;52.588;13.406;2022-11-23T14:51:09;5.30;99.90
25963;DHT22;13760;52.588;13.406;2022-11-23T14:53:40;5.20;99.90
25963;DHT22;13760;52.588;13.406;2022-11-23T14:59:52;5.10;99.90
25963;DHT22;13760;52.588;13.406;2022-11-23T15:01:59;5.10;99.90
25963;DHT22;13760;52.588;13.406;2022-11-23T15:04:36;5.00;99.90
25963;DHT22;13760;52.588;13.406;2022-11-23T15:07:12;4.90;99.90
25963;DHT22;13760;52.588;13.406;2022-11-23T15:09:53;4.90;99.90
25963;DHT22;13760;52.588;13.406;2022-11-23T15:12:27;4.90;99.90
25963;DHT22;13760;52.588;13.406;2022-11-23T15:14:55;4.80;99.90
25963;DHT22;13760;52.588;13.406;2022-11-23T15:17:24;4.70;99.90
25963;DHT22;13760;52.588;13.406;2022-11-23T15:19:55;4.70;99.90
25963;DHT22;13760;52.588;13.406;2022-11-23T15:22:21;4.60;99.90
25963;DHT22;13760;52.588;13.406;2022-11-23T15:24:47;4.60;99.90
25963;DHT22;13760;52.588;13.406;2022-11-23T15:27:24;4.50;99.90
25963;DHT22;13760;52.588;13.406;2022-11-23T15:29:54;4.50;99.90
25963;DHT22;13760;52.588;13.406;2022-11-23T15:32:26;4.40;99.90
25963;DHT22;13760;52.588;13.406;2022-11-23T15:34:53;4.30;99.90
25963;DHT22;13760;52.588;13.406;2022-11-23T15:37:20;4.30;99.90
25963;DHT22;13760;52.588;13.406;2022-11-23T15:39:47;4.20;99.90
25963;DHT22;13760;52.588;13.406;2022-11-23T15:42:18;4.20;99.90
25963;DHT22;13760;52.588;13.406;2022-11-23T15:44:44;4.10;99.90
25963;DHT22;13760;52.588;13.406;2022-11-23T15:47:20;4.10;99.90
25963;DHT22;13760;52.588;13.406;2022-11-23T15:49:47;4.10;99.90
25963;DHT22;13760;52.588;13.406;2022-11-23T15:52:15;4.10;99.90
25963;DHT22;13760;52.588;13.406;2022-11-23T15:54:42;4.00;99.90
25963;DHT22;13760;52.588;13.406;2022-11-23T15:57:17;4.00;99.90
25963;DHT22;13760;52.588;13.406;2022-11-23T15:59:56;4.00;99.90
25963;DHT22;13760;52.588;13.406;2022-11-23T16:02:27;4.00;99.90
25963;DHT22;13760;52.588;13.406;2022-11-23T16:07:54;4.00;99.90
25963;DHT22;13760;52.588;13.406;2022-11-23T16:10:29;4.00;99.90
25963;DHT22;13760;52.588;13.406;2022-11-23T16:13:00;4.00;99.90
25963;DHT22;13760;52.588;13.406;2022-11-23T16:18:19;4.00;99.90
25963;DHT22;13760;52.588;13.406;2022-11-23T16:20:53;4.00;99.90
25963;DHT22;13760;52.588;13.406;2022-11-23T16:23:22;4.00;99.90
25963;DHT22;13760;52.588;13.406;2022-11-23T16:26:14;4.00;99.90
25963;DHT22;13760;52.588;13.406;2022-11-23T16:28:53;4.10;99.90
25963;DHT22;13760;52.588;13.406;2022-11-23T16:31:34;4.10;99.90
25963;DHT22;13760;52.588;13.406;2022-11-23T16:34:00;4.10;99.90
25963;DHT22;13760;52.588;13.406;2022-11-23T16:36:28;4.10;99.90
25963;DHT22;13760;52.588;13.406;2022-11-23T16:38:54;4.10;99.90
25963;DHT22;13760;52.588;13.406;2022-11-23T16:41:20;4.10;99.90
25963;DHT22;13760;52.588;13.406;2022-11-23T16:43:51;4.10;99.90
25963;DHT22;13760;52.588;13.406;2022-11-23T16:46:18;4.10;99.90
25963;DHT22;13760;52.588;13.406;2022-11-23T16:48:43;4.10;99.90
25963;DHT22;13760;52.588;13.406;2022-11-23T16:51:10;4.10;99.90
25963;DHT22;13760;52.588;13.406;2022-11-23T16:53:36;4.10;99.90
25963;DHT22;13760;52.588;13.406;2022-11-23T16:56:02;4.10;99.90
25963;DHT22;13760;52.588;13.406;2022-11-23T16:58:31;4.00;99.90
25963;DHT22;13760;52.588;13.406;2022-11-23T17:01:00;4.00;99.90
25963;DHT22;13760;52.588;13.406;2022-11-23T17:03:25;4.00;99.90
25963;DHT22;13760;52.588;13.406;2022-11-23T17:05:51;4.00;99.90
25963;DHT22;13760;52.588;13.406;2022-11-23T17:08:16;3.90;99.90
25963;DHT22;13760;52.588;13.406;2022-11-23T17:10:42;3.90;99.90
25963;DHT22;13760;52.588;13.406;2022-11-23T17:13:22;3.90;99.90
25963;DHT22;13760;52.588;13.406;2022-11-23T17:15:49;3.90;99.90
25963;DHT22;13760;52.588;13.406;2022-11-23T17:18:15;3.90;99.90
25963;DHT22;13760;52.588;13.406;2022-11-23T17:20:41;3.90;99.90